Meteo Giornale » Osservazioni meteo Italia » Decimomannu

ore: 10:55 - Osservazioni Meteo Decimomannu
Lat. 39° 21' N Lon. 8° 58' E Alt. 29 metri s.l.m.

nuvoloso_temporali Europe/Rome

19 °C

Temporale con Pioggia

Temp. 24 Ore

18 °C

27 °C

Nord/NOvest

18.5 Km/h

Dew point 17 °C

Umidità 88 %

Visibilità  2 Km

Il sole sorge alle ore 07:13

Il sole tramonta alle ore 19:18

Data e Ora Cielo e Fenomeni T °C DP °C Um. % Pres. hPa Vis. km Vento km/h
Oggi h: 10:55 nuvoloso_temporali Temporale con Pioggia 19 17 88 1014 2 N/NO 18.5
Oggi h: 10:40 nuvoloso_temporali Temporale con Pioggia 19 18 93 1012 2 NO 16.7
Oggi h: 10:30 nuvoloso_temporali Temporale con Pioggia Debole 19 18 93 1013 10 N/NO 14.8
Oggi h: 09:55 coperto_pioggia Pioggia Debole 19 18 93 1011 10 N/NO 16.7
Oggi h: 09:24 coperto_pioggia Pioggia Debole 21 20 94 1011 10 N 16.7
Oggi h: 08:55 nuvoloso_temporali Temporale con Pioggia Debole 20 19 93 1011 2 N 20.3
Oggi h: 07:55 coperto_pioggia Pioggia Debole 24 23 94 1011 10 N 13
Oggi h: 06:55 nuvoloso Nuvoloso 19 18 93 1010 10 O/NO 14.8
Oggi h: 05:55 nuvoloso Nuvoloso 18 17 93 1009 10 S 7.4
Oggi h: 04:55 poco_nuvoloso Poco Nuvoloso 20 18 88 1010 10 N 3.7
Oggi h: 03:55 poco_nuvoloso Poco Nuvoloso 20 18 88 1011 10 N 3.7
Oggi h: 02:55 poco_nuvoloso Poco Nuvoloso 20 18 88 1011 10 N/NO 9.3
Oggi h: 01:55 poco_nuvoloso Poco Nuvoloso 20 18 88 1011 10 N 3.7
Oggi h: 00:55 poco_nuvoloso Poco Nuvoloso 21 19 88 1012 10 N 3.7
Ieri h: 23:55 nuvoloso Nuvoloso 22 20 88 1012 10 N 5.5
Ieri h: 22:55 poco_nuvoloso Poco Nuvoloso 22 20 88 1012 10 N 5.5
Ieri h: 21:55 poco_nuvoloso Poco Nuvoloso 23 20 83 1012 10 E/SE 7.4
Ieri h: 20:55 poco_nuvoloso Poco Nuvoloso 24 18 69 1012 10 SE 7.4
Ieri h: 19:55 poco_nuvoloso Poco Nuvoloso 25 18 65 1012 10 SE 13
Ieri h: 18:55 poco_nuvoloso Poco Nuvoloso 25 18 65 1012 10 SE 22.2
Ieri h: 17:55 poco_nuvoloso Poco Nuvoloso 27 20 65 1012 10 SE 25.9
Ieri h: 16:55 poco_nuvoloso Poco Nuvoloso 27 17 54 1012 10 SE 29.6
Ieri h: 14:55 poco_nuvoloso Poco Nuvoloso 27 15 47 1014 10 SE 29.6
Ieri h: 13:55 poco_nuvoloso Poco Nuvoloso 27 13 42 1015 10 SE 33.3
Ieri h: 12:55 poco_nuvoloso Poco Nuvoloso 27 12 39 1015 10 S/SE 27.8
Ieri h: 11:55 poco_nuvoloso Poco Nuvoloso 26 13 44 1016 10 S/SE 27.8